Time;durP1;ratioP1;P1;durP2;ratioP2;P2;SDS_P1;SDS_P2;PMS_P1;PMS_P2;Temp;Humidity;BMP_temperature;BMP_pressure;BME280_temperature;BME280_humidity;BME280_pressure;Samples;Min_cycle;Max_cycle;Signal;HPM_P1;HPM_P2
2022/04/30 00:00:18;;;;;;;22.47;12.40;;;;;;;;;;4981125;28;20208;-74
2022/04/30 00:02:45;;;;;;;24.87;12.43;;;;;;;;;;4985304;28;20231;-74
2022/04/30 00:05:14;;;;;;;25.13;12.53;;;;;;;;;;4987002;28;20216;-74
2022/04/30 00:07:41;;;;;;;32.40;12.20;;;;;;;;;;4983133;28;20316;-75
2022/04/30 00:10:09;;;;;;;34.17;12.60;;;;;;;;;;4983537;28;20239;-75
2022/04/30 00:12:37;;;;;;;28.70;12.47;;;;;;;;;;4982722;28;20653;-75
2022/04/30 00:15:05;;;;;;;27.97;12.50;;;;;;;;;;4983135;28;20775;-75
2022/04/30 00:17:32;;;;;;;24.17;12.17;;;;;;;;;;4985428;28;20201;-74
2022/04/30 00:19:59;;;;;;;28.63;13.47;;;;;;;;;;4984826;28;20581;-74
2022/04/30 00:22:27;;;;;;;24.83;12.93;;;;;;;;;;4980027;28;20226;-75
2022/04/30 00:24:54;;;;;;;34.23;13.47;;;;;;;;;;4987504;28;20292;-73
2022/04/30 00:27:22;;;;;;;25.47;12.47;;;;;;;;;;4984901;28;20229;-75
2022/04/30 00:29:50;;;;;;;33.43;12.57;;;;;;;;;;4983597;28;20673;-75
2022/04/30 00:32:18;;;;;;;26.03;13.17;;;;;;;;;;4982416;28;20232;-75
2022/04/30 00:34:46;;;;;;;28.67;12.60;;;;;;;;;;4986517;28;20874;-75
2022/04/30 00:37:16;;;;;;;30.00;13.97;;;;;;;;;;4983368;28;20205;-75
2022/04/30 00:39:43;;;;;;;31.93;13.07;;;;;;;;;;4983857;28;20300;-75
2022/04/30 00:42:12;;;;;;;32.43;14.17;;;;;;;;;;4982658;28;20221;-75
2022/04/30 00:44:39;;;;;;;29.93;13.57;;;;;;;;;;4982876;28;20206;-75
2022/04/30 00:47:08;;;;;;;28.63;13.27;;;;;;;;;;4980059;28;20686;-75
2022/04/30 00:49:35;;;;;;;26.90;13.20;;;;;;;;;;4976857;28;20202;-75
2022/04/30 00:52:04;;;;;;;33.93;12.57;;;;;;;;;;4981577;28;20233;-75
2022/04/30 00:54:34;;;;;;;29.40;12.70;;;;;;;;;;4982025;28;20206;-75
2022/04/30 00:57:03;;;;;;;25.83;12.10;;;;;;;;;;4981511;28;20644;-75
2022/04/30 00:59:31;;;;;;;30.93;14.20;;;;;;;;;;4982568;28;20208;-75
2022/04/30 01:01:59;;;;;;;32.93;13.27;;;;;;;;;;4982322;28;20285;-75
2022/04/30 01:04:28;;;;;;;35.40;13.23;;;;;;;;;;4982226;28;20213;-75
2022/04/30 01:06:57;;;;;;;29.47;13.27;;;;;;;;;;4981748;28;20308;-75
2022/04/30 01:09:26;;;;;;;28.83;12.93;;;;;;;;;;4981023;28;20208;-75
2022/04/30 01:11:56;;;;;;;24.27;12.60;;;;;;;;;;4982470;28;20220;-75
2022/04/30 01:14:26;;;;;;;29.70;13.17;;;;;;;;;;4983395;28;20205;-75
2022/04/30 01:16:54;;;;;;;28.10;14.70;;;;;;;;;;4983874;28;20201;-76
2022/04/30 01:19:23;;;;;;;25.43;13.33;;;;;;;;;;4979452;28;20209;-75
2022/04/30 01:21:52;;;;;;;33.43;13.47;;;;;;;;;;4977641;28;20225;-75
2022/04/30 01:24:23;;;;;;;32.17;13.30;;;;;;;;;;5017334;23;20251;-75
2022/04/30 01:26:52;;;;;;;28.20;13.93;;;;;;;;;;5013212;28;20234;-75
2022/04/30 01:29:19;;;;;;;26.33;12.57;;;;;;;;;;5014255;28;20208;-75
2022/04/30 01:37:25;;;;;;;34.07;14.93;;;;;;;;;;5018744;28;20214;-75
2022/04/30 01:39:57;;;;;;;30.80;13.90;;;;;;;;;;5013758;28;20757;-75
2022/04/30 01:42:25;;;;;;;34.13;15.20;;;;;;;;;;5018405;28;20230;-75
2022/04/30 01:44:53;;;;;;;33.70;14.23;;;;;;;;;;5022469;28;20666;-75
2022/04/30 01:47:21;;;;;;;32.07;15.30;;;;;;;;;;5017892;28;20220;-76
2022/04/30 01:49:48;;;;;;;32.20;15.10;;;;;;;;;;5016251;28;20218;-75
2022/04/30 01:52:15;;;;;;;35.67;15.67;;;;;;;;;;5014139;28;20224;-75
2022/04/30 01:54:43;;;;;;;33.10;15.70;;;;;;;;;;5018329;28;20204;-76
2022/04/30 01:57:12;;;;;;;30.87;15.60;;;;;;;;;;5018184;28;20196;-75
2022/04/30 01:59:40;;;;;;;30.10;15.37;;;;;;;;;;5018420;28;20207;-76
2022/04/30 02:02:07;;;;;;;30.53;15.97;;;;;;;;;;5015081;28;20228;-76
2022/04/30 02:04:35;;;;;;;30.87;15.30;;;;;;;;;;5020319;28;20723;-76
2022/04/30 02:07:03;;;;;;;30.13;15.93;;;;;;;;;;5016860;28;20224;-76
2022/04/30 02:09:31;;;;;;;34.83;16.90;;;;;;;;;;5019526;28;20207;-76
2022/04/30 02:11:59;;;;;;;37.17;18.77;;;;;;;;;;5018561;28;20262;-76
2022/04/30 02:14:30;;;;;;;37.60;18.67;;;;;;;;;;5017859;28;20258;-76
2022/04/30 02:16:57;;;;;;;34.20;18.47;;;;;;;;;;5017552;28;20295;-75
2022/04/30 02:19:25;;;;;;;38.87;19.73;;;;;;;;;;5019728;28;20219;-76
2022/04/30 02:21:53;;;;;;;37.83;19.97;;;;;;;;;;5015939;28;20237;-75
2022/04/30 02:24:20;;;;;;;40.73;19.17;;;;;;;;;;5014004;28;20314;-75
2022/04/30 02:26:48;;;;;;;33.17;18.43;;;;;;;;;;5017988;28;20227;-75
2022/04/30 02:29:15;;;;;;;40.43;18.23;;;;;;;;;;5017416;28;20212;-76
2022/04/30 02:31:44;;;;;;;37.83;18.47;;;;;;;;;;5017829;28;20333;-75
2022/04/30 02:34:11;;;;;;;42.70;20.33;;;;;;;;;;5015289;28;20678;-76
2022/04/30 02:36:39;;;;;;;39.30;20.13;;;;;;;;;;5021240;28;20679;-76
2022/04/30 02:39:06;;;;;;;32.73;18.57;;;;;;;;;;5016444;28;20196;-75
2022/04/30 02:41:35;;;;;;;37.70;19.97;;;;;;;;;;5021456;28;20223;-76
2022/04/30 02:44:04;;;;;;;33.07;18.97;;;;;;;;;;5019002;28;20208;-76
2022/04/30 02:46:31;;;;;;;43.70;19.87;;;;;;;;;;5016777;28;20676;-76
2022/04/30 02:49:00;;;;;;;37.07;19.53;;;;;;;;;;5018321;28;20202;-75
2022/04/30 02:51:27;;;;;;;36.33;18.77;;;;;;;;;;5016785;28;20235;-76
2022/04/30 02:53:54;;;;;;;37.60;19.13;;;;;;;;;;5016062;28;20295;-75
2022/04/30 02:56:21;;;;;;;39.37;19.63;;;;;;;;;;5017382;28;20290;-75
2022/04/30 03:01:35;;;;;;;40.90;20.80;;;;;;;;;;5021473;28;20242;-75
2022/04/30 03:04:04;;;;;;;38.30;20.07;;;;;;;;;;5027934;28;20570;-75
2022/04/30 03:06:33;;;;;;;35.37;19.07;;;;;;;;;;5025878;28;20214;-76
2022/04/30 03:09:00;;;;;;;39.03;20.43;;;;;;;;;;5023329;28;20228;-75
2022/04/30 03:11:27;;;;;;;35.13;18.37;;;;;;;;;;5027883;28;20227;-76
2022/04/30 03:13:54;;;;;;;35.63;20.37;;;;;;;;;;5027290;28;20273;-76
2022/04/30 03:21:53;;;;;;;36.23;18.93;;;;;;;;;;5021929;28;20262;-76
2022/04/30 03:24:20;;;;;;;42.77;19.20;;;;;;;;;;5027447;28;20223;-76
2022/04/30 03:26:48;;;;;;;37.30;19.40;;;;;;;;;;5025066;28;20203;-75
2022/04/30 03:29:15;;;;;;;35.40;18.83;;;;;;;;;;5019829;28;20239;-75
2022/04/30 03:31:43;;;;;;;35.50;18.20;;;;;;;;;;5024533;28;20220;-76
2022/04/30 03:34:12;;;;;;;34.23;18.50;;;;;;;;;;5029271;28;20216;-76
2022/04/30 03:36:39;;;;;;;31.80;17.80;;;;;;;;;;5027841;28;20256;-76
2022/04/30 03:39:07;;;;;;;36.90;18.33;;;;;;;;;;5025727;28;20618;-75
2022/04/30 03:41:34;;;;;;;34.47;18.17;;;;;;;;;;5023184;28;20224;-76
2022/04/30 03:44:02;;;;;;;32.63;18.23;;;;;;;;;;5022531;28;20220;-76
2022/04/30 03:46:29;;;;;;;31.60;17.27;;;;;;;;;;5024539;28;20698;-76
2022/04/30 03:48:56;;;;;;;34.03;17.37;;;;;;;;;;5022889;28;20224;-76
2022/04/30 03:51:25;;;;;;;33.20;16.83;;;;;;;;;;5024168;28;20231;-76
2022/04/30 03:53:54;;;;;;;28.87;15.43;;;;;;;;;;5020326;28;20299;-76
2022/04/30 03:56:21;;;;;;;27.17;15.07;;;;;;;;;;5022114;28;20200;-76
2022/04/30 03:58:49;;;;;;;29.40;15.40;;;;;;;;;;5020238;28;20655;-76
2022/04/30 04:01:18;;;;;;;29.90;15.57;;;;;;;;;;5024049;28;20227;-76
2022/04/30 04:03:46;;;;;;;27.77;15.90;;;;;;;;;;5021670;28;20566;-76
2022/04/30 04:06:15;;;;;;;28.90;15.00;;;;;;;;;;5020801;28;20841;-80
2022/04/30 04:08:44;;;;;;;28.67;15.83;;;;;;;;;;5022529;28;20228;-76
2022/04/30 04:11:13;;;;;;;27.93;15.70;;;;;;;;;;5021308;28;20735;-75
2022/04/30 04:19:09;;;;;;;24.33;14.20;;;;;;;;;;5020845;28;20210;-76
2022/04/30 04:21:36;;;;;;;30.70;14.77;;;;;;;;;;5025880;28;20752;-76
2022/04/30 04:26:50;;;;;;;31.33;14.60;;;;;;;;;;5026645;28;20219;-76
2022/04/30 04:29:17;;;;;;;30.03;13.80;;;;;;;;;;5026498;28;20605;-75
2022/04/30 04:31:45;;;;;;;26.13;13.60;;;;;;;;;;5025990;28;20220;-76
2022/04/30 04:34:12;;;;;;;29.77;14.60;;;;;;;;;;5024644;28;20204;-76
2022/04/30 04:36:39;;;;;;;24.83;13.40;;;;;;;;;;5021891;28;20200;-76
2022/04/30 04:39:13;;;;;;;25.33;13.90;;;;;;;;;;5024355;28;20191;-76
2022/04/30 04:41:41;;;;;;;22.67;12.70;;;;;;;;;;5026494;28;20242;-76
2022/04/30 04:44:09;;;;;;;23.70;13.40;;;;;;;;;;5025324;28;20212;-76
2022/04/30 04:46:37;;;;;;;23.37;13.80;;;;;;;;;;5023232;28;20203;-76
2022/04/30 04:49:05;;;;;;;22.93;12.60;;;;;;;;;;5027441;28;20215;-76
2022/04/30 04:51:32;;;;;;;24.57;11.80;;;;;;;;;;5022718;28;20220;-76
2022/04/30 04:53:59;;;;;;;24.47;12.20;;;;;;;;;;5026985;28;20298;-75
2022/04/30 04:56:28;;;;;;;24.20;12.97;;;;;;;;;;5025113;28;20208;-76
2022/04/30 04:58:55;;;;;;;21.33;12.37;;;;;;;;;;5026665;28;20287;-76
2022/04/30 05:01:22;;;;;;;23.47;12.60;;;;;;;;;;5026236;28;20302;-75
2022/04/30 05:03:51;;;;;;;24.33;12.73;;;;;;;;;;5019849;28;20677;-76
2022/04/30 05:06:18;;;;;;;23.83;12.73;;;;;;;;;;5027821;28;20361;-76
2022/04/30 05:08:46;;;;;;;23.50;13.00;;;;;;;;;;5024929;28;20238;-75
2022/04/30 05:11:13;;;;;;;23.13;12.50;;;;;;;;;;5023597;28;20390;-76
2022/04/30 05:13:42;;;;;;;27.63;13.40;;;;;;;;;;5024918;28;20216;-76
2022/04/30 05:16:09;;;;;;;21.10;12.43;;;;;;;;;;5025268;28;20750;-76
2022/04/30 05:18:36;;;;;;;24.00;13.03;;;;;;;;;;5024761;28;20195;-76
2022/04/30 05:21:03;;;;;;;21.17;12.37;;;;;;;;;;5023940;28;20311;-76
2022/04/30 05:23:30;;;;;;;23.80;12.33;;;;;;;;;;5027790;28;20218;-76
2022/04/30 05:25:57;;;;;;;24.77;12.57;;;;;;;;;;5025085;28;20196;-76
2022/04/30 05:28:24;;;;;;;26.83;13.57;;;;;;;;;;5025777;28;20257;-76
2022/04/30 05:30:53;;;;;;;30.90;14.20;;;;;;;;;;5017936;28;20646;-76
2022/04/30 05:33:20;;;;;;;23.10;12.63;;;;;;;;;;5022046;28;20508;-76
2022/04/30 05:35:47;;;;;;;29.60;14.07;;;;;;;;;;5024938;28;20220;-76
2022/04/30 05:38:14;;;;;;;23.53;13.30;;;;;;;;;;5023305;28;20219;-76
2022/04/30 05:40:41;;;;;;;26.50;14.30;;;;;;;;;;5022401;28;20571;-76
2022/04/30 05:43:09;;;;;;;25.70;13.53;;;;;;;;;;5026700;28;20669;-76
2022/04/30 05:45:36;;;;;;;22.43;12.57;;;;;;;;;;5024161;28;20681;-77
2022/04/30 05:48:05;;;;;;;23.23;13.53;;;;;;;;;;5023358;28;20219;-76
2022/04/30 05:50:33;;;;;;;26.10;13.83;;;;;;;;;;5022946;28;20226;-77
2022/04/30 05:53:00;;;;;;;26.20;13.10;;;;;;;;;;5022676;28;20201;-76
2022/04/30 05:55:27;;;;;;;25.77;13.90;;;;;;;;;;5022523;28;20203;-76
2022/04/30 05:57:55;;;;;;;26.17;12.67;;;;;;;;;;5022426;28;20290;-76
2022/04/30 06:00:22;;;;;;;26.70;13.40;;;;;;;;;;5020687;28;20298;-74
2022/04/30 06:02:49;;;;;;;25.37;12.63;;;;;;;;;;5024220;28;20230;-76
2022/04/30 06:05:18;;;;;;;24.27;13.70;;;;;;;;;;5024423;28;20571;-76
2022/04/30 06:07:45;;;;;;;24.17;13.20;;;;;;;;;;5020616;28;20207;-76
2022/04/30 06:10:12;;;;;;;23.63;14.13;;;;;;;;;;5019996;28;20203;-79
2022/04/30 06:12:40;;;;;;;25.40;13.57;;;;;;;;;;5022010;28;20232;-79
2022/04/30 06:15:07;;;;;;;25.60;13.80;;;;;;;;;;5025265;28;20200;-81
2022/04/30 06:17:35;;;;;;;23.33;12.37;;;;;;;;;;5027327;28;20298;-81
2022/04/30 06:20:02;;;;;;;25.90;13.23;;;;;;;;;;5023289;28;20251;-81
2022/04/30 06:22:30;;;;;;;25.67;13.40;;;;;;;;;;5023035;28;20323;-79
2022/04/30 06:24:58;;;;;;;25.17;13.43;;;;;;;;;;5019408;28;20291;-80
2022/04/30 06:27:25;;;;;;;23.67;12.60;;;;;;;;;;5023944;28;20627;-81
2022/04/30 06:29:52;;;;;;;23.97;12.93;;;;;;;;;;5020360;28;20542;-81
2022/04/30 06:32:19;;;;;;;22.97;12.40;;;;;;;;;;5022896;28;20767;-79
2022/04/30 06:34:47;;;;;;;21.53;12.03;;;;;;;;;;5023614;28;20917;-80
2022/04/30 06:37:14;;;;;;;23.43;11.53;;;;;;;;;;5024145;28;20226;-81
2022/04/30 06:39:43;;;;;;;23.33;11.87;;;;;;;;;;5025768;28;20211;-79
2022/04/30 06:42:10;;;;;;;22.50;12.37;;;;;;;;;;5028799;28;20589;-79
2022/04/30 06:44:38;;;;;;;21.27;12.00;;;;;;;;;;5026339;28;20200;-80
2022/04/30 06:47:05;;;;;;;26.20;12.40;;;;;;;;;;5023806;28;20208;-79
2022/04/30 06:49:32;;;;;;;22.23;12.30;;;;;;;;;;5027473;28;20224;-80
2022/04/30 06:52:01;;;;;;;23.30;12.03;;;;;;;;;;5025230;28;20594;-79
2022/04/30 06:57:16;;;;;;;25.57;12.53;;;;;;;;;;5018706;28;20242;-79
2022/04/30 06:59:45;;;;;;;20.83;11.77;;;;;;;;;;5024947;28;20204;-78
2022/04/30 07:02:18;;;;;;;29.57;12.40;;;;;;;;;;5027070;28;20305;-79
2022/04/30 07:04:47;;;;;;;21.20;12.23;;;;;;;;;;5021802;28;20216;-79
2022/04/30 07:07:15;;;;;;;21.13;12.13;;;;;;;;;;5025721;28;20210;-79
2022/04/30 07:09:42;;;;;;;23.97;12.00;;;;;;;;;;5029286;28;20242;-79
2022/04/30 07:12:13;;;;;;;21.03;11.63;;;;;;;;;;5028423;28;20235;-78
2022/04/30 07:14:41;;;;;;;23.43;12.93;;;;;;;;;;5025992;28;20466;-78
2022/04/30 07:17:09;;;;;;;22.23;11.47;;;;;;;;;;5031203;28;20210;-79
2022/04/30 07:19:36;;;;;;;29.20;11.87;;;;;;;;;;5027414;28;20290;-79
2022/04/30 07:22:03;;;;;;;21.47;11.70;;;;;;;;;;5026190;28;20226;-78
2022/04/30 07:24:31;;;;;;;23.23;10.97;;;;;;;;;;5027720;28;20215;-79
2022/04/30 07:26:59;;;;;;;19.53;11.20;;;;;;;;;;5024679;28;20206;-79
2022/04/30 07:29:26;;;;;;;22.20;10.73;;;;;;;;;;5023097;28;20226;-79
2022/04/30 07:31:55;;;;;;;22.07;11.47;;;;;;;;;;5025702;28;20318;-80
2022/04/30 07:34:23;;;;;;;17.47;10.67;;;;;;;;;;5032062;28;20303;-80
2022/04/30 07:36:50;;;;;;;26.50;11.90;;;;;;;;;;5028122;28;20204;-80
2022/04/30 07:39:17;;;;;;;18.13;10.77;;;;;;;;;;5022969;28;20202;-79
2022/04/30 07:41:45;;;;;;;20.83;11.10;;;;;;;;;;5024568;28;20251;-80
2022/04/30 07:44:12;;;;;;;21.43;10.53;;;;;;;;;;5027228;28;20232;-80
2022/04/30 07:46:39;;;;;;;19.77;10.03;;;;;;;;;;5025415;28;20280;-80
2022/04/30 07:49:08;;;;;;;19.30;10.63;;;;;;;;;;5020288;28;20673;-79
2022/04/30 07:51:42;;;;;;;19.80;10.13;;;;;;;;;;5025395;28;20228;-80
2022/04/30 07:54:09;;;;;;;18.00;9.93;;;;;;;;;;5027277;28;20200;-79
2022/04/30 07:56:36;;;;;;;19.60;9.77;;;;;;;;;;5021702;28;20204;-79
2022/04/30 07:59:03;;;;;;;21.27;10.30;;;;;;;;;;5025294;28;20455;-80
2022/04/30 08:01:31;;;;;;;19.83;10.60;;;;;;;;;;5021540;28;20216;-80
2022/04/30 08:03:58;;;;;;;19.43;9.97;;;;;;;;;;5025558;28;20204;-79
2022/04/30 08:06:26;;;;;;;16.13;9.67;;;;;;;;;;5017568;28;20279;-78
2022/04/30 08:08:53;;;;;;;19.93;9.63;;;;;;;;;;5018890;28;20445;-78
2022/04/30 08:11:21;;;;;;;18.43;9.93;;;;;;;;;;5022059;28;20232;-79
2022/04/30 08:13:48;;;;;;;19.47;10.10;;;;;;;;;;5023165;28;20219;-79
2022/04/30 08:16:15;;;;;;;15.87;9.60;;;;;;;;;;5025230;28;20290;-79
2022/04/30 08:18:42;;;;;;;17.27;9.47;;;;;;;;;;5019551;28;20203;-80
2022/04/30 08:21:09;;;;;;;21.40;9.97;;;;;;;;;;5012334;28;20324;-78
2022/04/30 08:23:38;;;;;;;19.33;10.47;;;;;;;;;;5022539;28;20220;-80
2022/04/30 08:26:05;;;;;;;21.90;9.80;;;;;;;;;;5022029;28;20302;-80
2022/04/30 08:28:33;;;;;;;18.63;9.90;;;;;;;;;;5019779;28;20725;-80
2022/04/30 08:31:00;;;;;;;21.50;10.10;;;;;;;;;;5025697;28;20255;-80
2022/04/30 08:33:28;;;;;;;19.20;9.60;;;;;;;;;;5021760;28;20293;-80
2022/04/30 08:35:56;;;;;;;19.10;10.00;;;;;;;;;;5016299;28;20209;-80
2022/04/30 08:38:23;;;;;;;18.67;9.90;;;;;;;;;;5021057;28;20208;-79
2022/04/30 08:40:51;;;;;;;25.43;10.37;;;;;;;;;;5016822;28;20207;-80
2022/04/30 08:43:21;;;;;;;16.03;9.20;;;;;;;;;;5019023;28;20708;-80
2022/04/30 08:45:51;;;;;;;16.50;9.30;;;;;;;;;;5018947;28;20204;-80
2022/04/30 08:48:18;;;;;;;16.90;9.23;;;;;;;;;;5019401;28;20208;-79
2022/04/30 08:50:47;;;;;;;15.17;9.20;;;;;;;;;;5022284;28;20263;-79
2022/04/30 08:53:14;;;;;;;17.37;9.80;;;;;;;;;;5021403;28;20669;-80
2022/04/30 08:55:41;;;;;;;19.57;9.67;;;;;;;;;;5018658;28;20224;-79
2022/04/30 08:58:10;;;;;;;21.33;9.27;;;;;;;;;;5022682;28;20214;-81
2022/04/30 09:00:41;;;;;;;17.27;9.93;;;;;;;;;;5021005;28;20206;-79
2022/04/30 09:03:08;;;;;;;17.50;9.03;;;;;;;;;;5021977;28;20246;-80
2022/04/30 09:05:36;;;;;;;17.67;9.23;;;;;;;;;;5019052;28;20216;-79
2022/04/30 09:08:05;;;;;;;15.80;9.47;;;;;;;;;;5021965;28;20279;-79
2022/04/30 09:10:33;;;;;;;16.60;9.30;;;;;;;;;;5020833;28;20609;-79
2022/04/30 09:13:07;;;;;;;16.93;9.07;;;;;;;;;;5024293;28;20653;-79
2022/04/30 09:15:36;;;;;;;15.60;9.27;;;;;;;;;;5020085;28;20305;-80
2022/04/30 09:18:04;;;;;;;19.07;8.93;;;;;;;;;;5023990;28;20302;-80
2022/04/30 09:20:35;;;;;;;17.03;9.27;;;;;;;;;;5023518;28;20574;-79
2022/04/30 09:23:02;;;;;;;17.63;8.73;;;;;;;;;;5020943;28;20215;-80
2022/04/30 09:25:29;;;;;;;16.03;8.70;;;;;;;;;;5020015;28;20210;-80
2022/04/30 09:27:57;;;;;;;14.40;9.07;;;;;;;;;;5018170;28;20207;-80
2022/04/30 09:30:27;;;;;;;15.80;9.37;;;;;;;;;;5019044;28;20227;-79
2022/04/30 09:33:03;;;;;;;17.17;8.93;;;;;;;;;;5026531;28;20227;-79
2022/04/30 09:38:15;;;;;;;16.30;9.93;;;;;;;;;;5022370;28;20288;-79
2022/04/30 09:40:52;;;;;;;14.20;9.00;;;;;;;;;;5018464;28;20203;-79
2022/04/30 09:43:21;;;;;;;17.40;9.13;;;;;;;;;;5025510;28;20235;-80
2022/04/30 09:45:49;;;;;;;19.47;9.73;;;;;;;;;;5020871;28;20517;-80
2022/04/30 09:54:00;;;;;;;20.57;9.60;;;;;;;;;;5025919;28;20203;-79
2022/04/30 09:56:34;;;;;;;23.87;11.93;;;;;;;;;;5022974;28;20204;-80
2022/04/30 09:59:04;;;;;;;18.20;9.33;;;;;;;;;;5020652;28;20211;-80
2022/04/30 10:01:32;;;;;;;21.37;8.83;;;;;;;;;;5020201;28;20224;-79
2022/04/30 10:04:03;;;;;;;16.40;8.70;;;;;;;;;;5022876;28;20258;-79
2022/04/30 10:06:32;;;;;;;16.07;8.90;;;;;;;;;;5023796;28;20211;-79
2022/04/30 10:09:00;;;;;;;14.73;8.97;;;;;;;;;;5022012;28;20196;-80
2022/04/30 10:11:35;;;;;;;17.70;8.57;;;;;;;;;;5018812;28;20264;-80
2022/04/30 10:14:14;;;;;;;15.60;8.87;;;;;;;;;;5015402;28;20203;-80
2022/04/30 10:17:09;;;;;;;15.30;8.13;;;;;;;;;;5016301;28;20208;-78
2022/04/30 10:19:32;;;;;;;21.77;9.53;;;;;;;;;;5018246;28;20195;-78
2022/04/30 10:22:15;;;;;;;15.70;8.20;;;;;;;;;;5017074;28;20311;-78
2022/04/30 10:24:43;;;;;;;14.50;8.83;;;;;;;;;;5020927;28;20212;-78
2022/04/30 10:27:11;;;;;;;21.13;8.30;;;;;;;;;;5019223;28;20219;-79
2022/04/30 10:29:38;;;;;;;14.87;8.30;;;;;;;;;;5020845;28;20318;-78
2022/04/30 10:32:06;;;;;;;16.77;8.43;;;;;;;;;;5017048;28;20232;-78
2022/04/30 10:34:34;;;;;;;16.33;8.83;;;;;;;;;;5021579;28;20244;-79
2022/04/30 10:37:02;;;;;;;18.57;9.43;;;;;;;;;;5020845;28;20212;-79
2022/04/30 10:39:32;;;;;;;16.90;8.57;;;;;;;;;;5020695;28;20845;-80
2022/04/30 10:41:59;;;;;;;12.40;8.00;;;;;;;;;;5019136;28;20231;-79
2022/04/30 10:44:30;;;;;;;13.33;7.43;;;;;;;;;;5019757;28;20306;-79
2022/04/30 10:47:08;;;;;;;17.10;8.10;;;;;;;;;;5015693;28;20318;-79
2022/04/30 10:49:37;;;;;;;15.20;8.40;;;;;;;;;;5020160;28;20397;-78
2022/04/30 10:52:07;;;;;;;13.63;8.30;;;;;;;;;;5019250;28;20220;-80
2022/04/30 10:54:37;;;;;;;13.87;8.00;;;;;;;;;;5018260;28;20251;-79
2022/04/30 10:57:05;;;;;;;13.67;7.73;;;;;;;;;;5016282;28;20215;-79
2022/04/30 10:59:32;;;;;;;15.63;8.43;;;;;;;;;;5020871;28;20315;-79
2022/04/30 11:02:01;;;;;;;17.33;7.97;;;;;;;;;;5018692;28;20262;-79
2022/04/30 11:04:31;;;;;;;17.97;8.33;;;;;;;;;;5013998;28;20204;-79
2022/04/30 11:07:01;;;;;;;15.73;8.03;;;;;;;;;;5017501;28;20201;-79
2022/04/30 11:09:28;;;;;;;16.83;8.20;;;;;;;;;;5022268;28;20228;-79
2022/04/30 11:11:56;;;;;;;13.80;8.00;;;;;;;;;;5020251;28;20220;-79
2022/04/30 11:14:24;;;;;;;13.60;7.97;;;;;;;;;;5015227;28;20298;-79
2022/04/30 11:16:52;;;;;;;17.37;8.30;;;;;;;;;;5016239;28;20316;-79
2022/04/30 11:19:20;;;;;;;18.40;8.43;;;;;;;;;;5020377;28;20239;-79
2022/04/30 11:21:50;;;;;;;15.13;8.40;;;;;;;;;;5026377;28;20224;-79
2022/04/30 11:24:25;;;;;;;13.47;7.93;;;;;;;;;;5027926;28;20208;-79
2022/04/30 11:26:59;;;;;;;13.60;7.80;;;;;;;;;;5021489;28;20657;-75
2022/04/30 11:29:26;;;;;;;14.23;7.83;;;;;;;;;;5023799;28;20204;-78
2022/04/30 11:31:55;;;;;;;12.87;7.83;;;;;;;;;;5020689;28;20250;-79
2022/04/30 11:34:22;;;;;;;15.33;8.27;;;;;;;;;;5021659;28;20846;-78
2022/04/30 11:36:50;;;;;;;14.63;8.03;;;;;;;;;;5024769;28;20196;-77
2022/04/30 11:39:18;;;;;;;15.03;7.23;;;;;;;;;;5024471;28;20575;-79
2022/04/30 11:41:48;;;;;;;19.37;8.07;;;;;;;;;;5022336;28;20228;-78
2022/04/30 11:44:16;;;;;;;17.47;8.60;;;;;;;;;;5019525;28;20577;-78
2022/04/30 11:46:44;;;;;;;14.10;7.80;;;;;;;;;;5023118;28;20291;-78
2022/04/30 11:49:13;;;;;;;15.07;8.13;;;;;;;;;;5022313;28;20295;-75
2022/04/30 11:51:41;;;;;;;20.37;8.70;;;;;;;;;;5020882;28;20282;-75
2022/04/30 11:54:09;;;;;;;15.87;8.07;;;;;;;;;;5020540;28;20203;-77
2022/04/30 11:56:39;;;;;;;17.17;8.10;;;;;;;;;;5018121;28;20907;-75
2022/04/30 11:59:07;;;;;;;16.53;9.43;;;;;;;;;;5022673;28;20203;-77
2022/04/30 12:01:35;;;;;;;14.63;8.57;;;;;;;;;;5022529;28;20286;-77
2022/04/30 12:04:04;;;;;;;14.67;8.40;;;;;;;;;;5016211;28;20543;-77
2022/04/30 12:06:32;;;;;;;34.70;16.07;;;;;;;;;;5016582;28;20213;-76
2022/04/30 12:09:00;;;;;;;29.90;13.87;;;;;;;;;;5013011;28;20207;-76
2022/04/30 12:11:27;;;;;;;29.53;13.40;;;;;;;;;;5008899;28;20238;-78
2022/04/30 12:14:04;;;;;;;17.60;10.20;;;;;;;;;;5021987;28;21002;-77
2022/04/30 12:16:37;;;;;;;31.33;15.23;;;;;;;;;;5015730;28;20215;-77
2022/04/30 12:24:41;;;;;;;26.07;14.23;;;;;;;;;;5016207;28;20238;-77
2022/04/30 12:27:09;;;;;;;18.97;10.70;;;;;;;;;;5012090;28;21460;-77
2022/04/30 12:29:36;;;;;;;17.00;9.17;;;;;;;;;;5019943;28;20602;-76
2022/04/30 12:32:07;;;;;;;15.90;8.13;;;;;;;;;;5011155;28;20230;-77
2022/04/30 12:34:38;;;;;;;16.43;9.00;;;;;;;;;;5019042;28;20210;-77
2022/04/30 12:37:06;;;;;;;19.37;11.17;;;;;;;;;;5015828;28;20210;-78
2022/04/30 12:39:33;;;;;;;23.17;9.23;;;;;;;;;;5022400;28;20241;-77
2022/04/30 12:42:00;;;;;;;17.03;8.43;;;;;;;;;;5022976;28;20395;-77
2022/04/30 12:44:28;;;;;;;16.87;8.23;;;;;;;;;;5022534;28;20223;-78
2022/04/30 12:46:55;;;;;;;15.77;9.23;;;;;;;;;;5022107;28;20203;-77
2022/04/30 12:49:24;;;;;;;15.30;9.80;;;;;;;;;;5021199;28;20261;-76
2022/04/30 12:51:51;;;;;;;15.37;8.03;;;;;;;;;;5024446;28;20228;-78
2022/04/30 12:54:18;;;;;;;15.13;8.60;;;;;;;;;;5023114;28;20282;-78
2022/04/30 12:56:46;;;;;;;13.87;7.93;;;;;;;;;;5024753;28;20565;-76
2022/04/30 12:59:14;;;;;;;19.20;8.47;;;;;;;;;;5024371;28;20204;-78
2022/04/30 13:01:41;;;;;;;14.17;7.80;;;;;;;;;;5020764;28;20219;-76
2022/04/30 13:04:09;;;;;;;14.50;7.90;;;;;;;;;;5025126;28;20208;-79
2022/04/30 13:06:38;;;;;;;18.00;8.32;;;;;;;;;;5020142;28;20457;-79
2022/04/30 13:14:35;;;;;;;12.13;7.10;;;;;;;;;;5026681;28;20721;-77
2022/04/30 13:17:03;;;;;;;12.57;7.10;;;;;;;;;;5022243;28;20290;-79
2022/04/30 13:19:31;;;;;;;11.07;7.10;;;;;;;;;;5025079;28;20299;-76
2022/04/30 13:22:01;;;;;;;14.53;7.47;;;;;;;;;;5028514;28;20224;-78
2022/04/30 13:24:29;;;;;;;12.40;6.57;;;;;;;;;;5029461;23;20632;-78
2022/04/30 13:26:57;;;;;;;12.60;6.57;;;;;;;;;;5024336;28;20239;-78
2022/04/30 13:29:24;;;;;;;12.97;7.40;;;;;;;;;;5020879;28;20598;-78
2022/04/30 13:31:51;;;;;;;11.17;7.30;;;;;;;;;;5020417;28;20239;-77
2022/04/30 13:34:20;;;;;;;13.17;7.17;;;;;;;;;;5023488;28;20219;-77
2022/04/30 13:36:47;;;;;;;18.83;6.87;;;;;;;;;;5020103;28;20300;-79
2022/04/30 13:39:16;;;;;;;11.53;7.20;;;;;;;;;;5014691;28;20216;-77
2022/04/30 13:41:43;;;;;;;13.80;6.80;;;;;;;;;;5014401;28;20362;-77
2022/04/30 13:44:11;;;;;;;9.63;6.50;;;;;;;;;;5019036;28;20200;-78
2022/04/30 13:46:38;;;;;;;11.43;6.17;;;;;;;;;;5015576;28;20283;-76
2022/04/30 13:49:05;;;;;;;10.17;5.87;;;;;;;;;;5014605;28;20299;-77
2022/04/30 13:51:34;;;;;;;14.50;6.70;;;;;;;;;;5015385;28;20311;-77
2022/04/30 13:54:01;;;;;;;12.63;6.70;;;;;;;;;;5018209;28;20211;-77
2022/04/30 13:56:36;;;;;;;16.40;7.00;;;;;;;;;;5017704;28;20673;-77
2022/04/30 13:59:04;;;;;;;13.90;6.90;;;;;;;;;;5016501;28;20208;-77
2022/04/30 14:01:31;;;;;;;10.57;6.77;;;;;;;;;;5018804;28;20228;-77
2022/04/30 14:03:59;;;;;;;13.83;6.60;;;;;;;;;;5020007;28;20246;-77
2022/04/30 14:06:27;;;;;;;14.33;6.67;;;;;;;;;;5016272;28;20207;-77
2022/04/30 14:08:54;;;;;;;12.63;6.50;;;;;;;;;;5015986;28;20724;-78
2022/04/30 14:11:21;;;;;;;13.73;6.50;;;;;;;;;;5016502;28;20754;-77
2022/04/30 14:16:34;;;;;;;12.93;6.50;;;;;;;;;;5018222;28;20567;-78
2022/04/30 14:19:02;;;;;;;11.10;6.17;;;;;;;;;;5017388;28;20211;-77
2022/04/30 14:21:29;;;;;;;10.13;6.30;;;;;;;;;;5012758;28;20232;-78
2022/04/30 14:23:56;;;;;;;10.53;6.60;;;;;;;;;;5022092;28;20282;-79
2022/04/30 14:26:26;;;;;;;16.73;6.87;;;;;;;;;;5017686;28;20204;-78
2022/04/30 14:28:54;;;;;;;12.43;6.10;;;;;;;;;;5019522;28;20208;-78
2022/04/30 14:31:22;;;;;;;10.67;6.40;;;;;;;;;;5018194;28;20338;-79
2022/04/30 14:33:49;;;;;;;14.50;6.60;;;;;;;;;;5016780;28;20215;-77
2022/04/30 14:36:17;;;;;;;13.90;6.50;;;;;;;;;;5012262;28;20227;-80
2022/04/30 14:38:44;;;;;;;11.47;5.97;;;;;;;;;;5016697;28;20231;-80
2022/04/30 14:41:11;;;;;;;14.80;6.47;;;;;;;;;;5018820;28;20308;-78
2022/04/30 14:43:40;;;;;;;11.73;6.10;;;;;;;;;;5016432;28;20817;-79
2022/04/30 14:46:08;;;;;;;12.70;6.13;;;;;;;;;;5021325;28;20212;-78
2022/04/30 14:48:36;;;;;;;9.20;6.07;;;;;;;;;;5014864;28;20263;-78
2022/04/30 14:51:03;;;;;;;14.37;6.53;;;;;;;;;;5014328;28;20227;-78
2022/04/30 14:53:31;;;;;;;9.97;6.63;;;;;;;;;;5022622;28;20741;-78
2022/04/30 14:56:01;;;;;;;10.70;6.60;;;;;;;;;;5028180;28;20322;-78
2022/04/30 14:58:28;;;;;;;15.50;6.77;;;;;;;;;;5020370;28;20204;-79
2022/04/30 15:00:55;;;;;;;13.97;6.40;;;;;;;;;;5018159;28;20226;-78
2022/04/30 15:03:24;;;;;;;16.57;7.17;;;;;;;;;;5017380;28;20291;-78
2022/04/30 15:05:51;;;;;;;13.30;6.90;;;;;;;;;;5021320;28;20200;-78
2022/04/30 15:08:18;;;;;;;9.43;6.17;;;;;;;;;;5019612;28;20976;-78
2022/04/30 15:10:46;;;;;;;12.93;5.93;;;;;;;;;;5019645;28;20243;-78
2022/04/30 15:13:13;;;;;;;11.77;6.73;;;;;;;;;;5015117;28;21395;-78
2022/04/30 15:15:41;;;;;;;15.20;6.10;;;;;;;;;;5017217;28;20229;-78